Time;durP1;ratioP1;P1;durP2;ratioP2;P2;SDS_P1;SDS_P2;PMS_P1;PMS_P2;Temp;Humidity;BMP_temperature;BMP_pressure;BME280_temperature;BME280_humidity;BME280_pressure;Samples;Min_cycle;Max_cycle;Signal;HPM_P1;HPM_P2
2023/07/18 00:02:22;;;;;;;2.75;1.52;;;;;;;;;;5009648;28;20048;-79
2023/07/18 00:04:47;;;;;;;6.85;2.03;;;;;;;;;;5008243;28;20018;-80
2023/07/18 00:07:13;;;;;;;4.55;1.65;;;;;;;;;;5008704;28;20029;-79
2023/07/18 00:09:39;;;;;;;5.60;2.42;;;;;;;;;;5008385;28;20029;-79
2023/07/18 00:12:06;;;;;;;7.57;1.88;;;;;;;;;;5008663;28;20542;-79
2023/07/18 00:14:32;;;;;;;4.53;2.15;;;;;;;;;;5008566;28;20407;-79
2023/07/18 00:16:58;;;;;;;3.40;1.73;;;;;;;;;;5009769;28;20018;-79
2023/07/18 00:19:24;;;;;;;9.52;1.58;;;;;;;;;;5012068;28;20105;-80
2023/07/18 00:21:50;;;;;;;4.78;1.88;;;;;;;;;;5014729;28;20026;-79
2023/07/18 00:24:16;;;;;;;3.08;1.60;;;;;;;;;;5012350;28;20044;-79
2023/07/18 00:26:42;;;;;;;4.97;1.75;;;;;;;;;;5011942;28;20120;-79
2023/07/18 00:29:09;;;;;;;3.17;1.77;;;;;;;;;;5010628;28;20057;-79
2023/07/18 00:31:36;;;;;;;2.83;1.60;;;;;;;;;;5012108;28;20044;-79
2023/07/18 00:34:03;;;;;;;3.85;1.95;;;;;;;;;;5012109;28;20148;-80
2023/07/18 00:36:29;;;;;;;2.15;1.40;;;18.30;97.50;;;;;;5012058;28;20049;-79
2023/07/18 00:38:55;;;;;;;2.03;1.58;;;;;;;;;;5012559;28;20055;-80
2023/07/18 00:41:21;;;;;;;3.08;1.60;;;;;;;;;;5011746;28;20033;-79
2023/07/18 00:43:47;;;;;;;2.67;1.55;;;;;;;;;;5011963;28;20076;-80
2023/07/18 00:46:14;;;;;;;2.60;1.40;;;18.60;89.20;;;;;;5012006;28;20025;-79
2023/07/18 00:48:40;;;;;;;2.25;1.20;;;;;;;;;;5012130;28;20029;-79
2023/07/18 00:51:09;;;;;;;4.30;1.65;;;;;;;;;;5011308;28;20399;-80
2023/07/18 00:53:37;;;;;;;3.60;1.40;;;18.40;89.50;;;;;;5010348;28;20114;-79
2023/07/18 00:56:03;;;;;;;4.90;1.50;;;;;;;;;;5010415;28;20033;-80
2023/07/18 00:58:30;;;;;;;3.72;1.20;;;;;;;;;;5011682;28;20104;-79
2023/07/18 01:00:56;;;;;;;4.75;1.92;;;;;;;;;;5011840;28;20065;-79
2023/07/18 01:03:22;;;;;;;3.08;1.95;;;18.70;95.00;;;;;;5011564;28;20045;-79
2023/07/18 01:05:48;;;;;;;6.57;1.85;;;;;;;;;;5009699;28;20036;-80
2023/07/18 01:08:15;;;;;;;5.57;2.20;;;;;;;;;;5011016;28;20096;-79
2023/07/18 01:10:41;;;;;;;3.00;1.55;;;;;;;;;;5011410;28;20036;-80
2023/07/18 01:13:07;;;;;;;2.80;1.75;;;;;;;;;;5011558;28;20033;-80
2023/07/18 01:15:33;;;;;;;4.65;1.65;;;18.40;90.50;;;;;;5010276;28;20022;-80
2023/07/18 01:18:06;;;;;;;3.67;1.58;;;18.50;90.30;;;;;;5010988;28;20420;-79
2023/07/18 01:20:33;;;;;;;3.17;1.85;;;;;;;;;;5011056;28;20124;-79
2023/07/18 01:23:00;;;;;;;5.93;2.22;;;18.30;90.00;;;;;;5011359;28;20605;-80
2023/07/18 01:25:26;;;;;;;5.07;1.80;;;;;;;;;;5011251;28;20038;-79
2023/07/18 01:27:54;;;;;;;2.30;1.40;;;18.40;96.20;;;;;;5010729;28;20552;-79
2023/07/18 01:30:22;;;;;;;3.97;2.38;;;18.10;91.00;;;;;;5011290;28;20069;-79
2023/07/18 01:32:49;;;;;;;4.25;1.77;;;;;;;;;;5011013;28;20025;-79
2023/07/18 01:35:17;;;;;;;5.15;1.60;;;17.90;92.10;;;;;;5003290;28;20389;-79
2023/07/18 01:37:44;;;;;;;5.18;2.00;;;;;;;;;;5010418;28;20690;-79
2023/07/18 01:40:15;;;;;;;7.57;2.45;;;18.00;92.20;;;;;;5010581;28;20069;-79
2023/07/18 01:42:42;;;;;;;2.13;1.48;;;;;;;;;;5008719;28;20529;-79
2023/07/18 01:45:09;;;;;;;9.57;2.03;;;17.80;94.50;;;;;;5009591;28;20022;-80
2023/07/18 01:47:36;;;;;;;8.32;1.85;;;17.90;99.90;;;;;;5010689;28;20513;-79
2023/07/18 01:50:04;;;;;;;4.15;1.98;;;17.70;93.60;;;;;;5009303;28;20037;-80
2023/07/18 01:52:31;;;;;;;4.78;1.80;;;17.70;93.90;;;;;;5009417;28;20026;-79
2023/07/18 01:54:58;;;;;;;3.55;1.98;;;;;;;;;;5010455;28;20108;-79
2023/07/18 01:57:25;;;;;;;;;;;17.70;95.40;;;;;;5018929;28;20034;-80
2023/07/18 01:59:51;;;;;;;;;;;17.70;96.00;;;;;;5018306;28;20220;-79
2023/07/18 02:02:18;;;;;;;5.20;1.45;;;;;;;;;;5010661;28;19905;-79
2023/07/18 02:04:44;;;;;;;6.38;1.60;;;;;;;;;;5010011;28;20052;-80
2023/07/18 02:07:10;;;;;;;5.70;1.58;;;;;;;;;;5010223;28;20040;-79
2023/07/18 02:09:36;;;;;;;3.15;1.60;;;;;;;;;;5008933;28;20029;-79
2023/07/18 02:12:02;;;;;;;3.00;1.45;;;;;;;;;;5010441;28;20395;-79
2023/07/18 02:14:28;;;;;;;6.93;1.58;;;;;;;;;;5009948;28;20659;-79
2023/07/18 02:16:54;;;;;;;4.28;1.83;;;17.60;96.10;;;;;;5020527;28;20101;-79
2023/07/18 02:19:20;;;;;;;6.70;2.00;;;;;;;;;;5010735;28;20060;-79
2023/07/18 02:21:46;;;;;;;4.80;1.93;;;;;;;;;;5010950;28;20325;-79
2023/07/18 02:24:12;;;;;;;5.53;2.65;;;;;;;;;;5009983;28;20494;-79
2023/07/18 02:26:39;;;;;;;3.00;1.30;;;;;;;;;;5010520;28;20028;-79
2023/07/18 02:29:05;;;;;;;5.75;1.58;;;;;;;;;;5010357;28;20038;-80
2023/07/18 02:31:32;;;;;;;3.03;1.57;;;;;;;;;;5010639;28;20072;-80
2023/07/18 02:33:58;;;;;;;12.35;2.45;;;;;;;;;;5008136;28;20025;-79
2023/07/18 02:36:24;;;;;;;4.90;1.67;;;17.40;95.40;;;;;;5009906;28;20054;-80
2023/07/18 02:38:51;;;;;;;3.17;2.00;;;;;;;;;;5008971;28;20018;-79
2023/07/18 02:41:17;;;;;;;3.08;1.80;;;;;;;;;;5009541;28;20100;-79
2023/07/18 02:43:43;;;;;;;11.48;4.15;;;;;;;;;;5008633;28;20030;-79
2023/07/18 02:46:09;;;;;;;3.47;2.05;;;;;;;;;;5010183;28;20065;-79
2023/07/18 02:48:35;;;;;;;6.68;1.80;;;;;;;;;;5008725;28;20068;-80
2023/07/18 02:51:01;;;;;;;3.00;1.67;;;;;;;;;;5009565;28;20117;-79
2023/07/18 02:53:27;;;;;;;6.40;2.40;;;;;;;;;;5009701;28;20133;-79
2023/07/18 02:55:53;;;;;;;2.47;1.30;;;17.30;99.90;;;;;;5009512;28;20034;-79
2023/07/18 02:58:18;;;;;;;7.55;2.55;;;17.60;99.90;;;;;;5022090;28;20034;-78
2023/07/18 03:00:44;;;;;;;2.88;1.92;;;;;;;;;;5023937;28;20030;-79
2023/07/18 03:03:11;;;;;;;3.83;1.60;;;;;;;;;;5008734;28;20530;-78
2023/07/18 03:05:37;;;;;;;4.20;1.70;;;;;;;;;;5009452;28;20033;-79
2023/07/18 03:08:04;;;;;;;4.32;2.35;;;;;;;;;;5021897;28;20042;-79
2023/07/18 03:10:30;;;;;;;4.47;1.83;;;;;;;;;;5008942;28;20410;-79
2023/07/18 03:12:56;;;;;;;5.07;1.75;;;;;;;;;;5008696;28;20491;-80
2023/07/18 03:15:22;;;;;;;3.40;1.58;;;;;;;;;;5009675;28;20108;-79
2023/07/18 03:17:48;;;;;;;4.10;1.83;;;17.40;99.90;;;;;;5008762;28;20022;-79
2023/07/18 03:20:17;;;;;;;6.20;2.30;;;;;;;;;;5009344;28;20026;-79
2023/07/18 03:22:46;;;;;;;4.15;1.95;;;17.30;99.90;;;;;;5008358;28;20037;-79
2023/07/18 03:25:13;;;;;;;6.68;2.05;;;;;;;;;;5009326;28;20021;-79
2023/07/18 03:27:39;;;;;;;2.95;1.73;;;;;;;;;;5009063;28;20100;-79
2023/07/18 03:30:06;;;;;;;2.47;1.60;;;17.00;99.90;;;;;;5009697;28;20038;-79
2023/07/18 03:32:32;;;;;;;3.13;1.35;;;;;;;;;;5008276;28;20026;-79
2023/07/18 03:34:59;;;;;;;3.85;1.63;;;;;;;;;;5007977;28;20054;-79
2023/07/18 03:37:26;;;;;;;3.58;2.17;;;17.20;96.80;;;;;;5006009;28;20049;-79
2023/07/18 03:39:52;;;;;;;6.53;2.13;;;;;;;;;;5021566;28;20041;-79
2023/07/18 03:42:18;;;;;;;6.00;2.28;;;;;;;;;;5008670;28;20022;-79
2023/07/18 03:44:44;;;;;;;3.95;1.67;;;;;;;;;;5007274;28;20037;-79
2023/07/18 03:47:11;;;;;;;5.53;2.00;;;;;;;;;;5008778;28;20033;-79
2023/07/18 03:49:37;;;;;;;3.92;1.73;;;;;;;;;;5008604;28;20037;-79
2023/07/18 03:52:04;;;;;;;3.55;1.35;;;17.20;99.90;;;;;;5013098;28;20034;-79
2023/07/18 03:54:30;;;;;;;3.25;1.45;;;;;;;;;;5012341;28;20022;-79
2023/07/18 03:56:56;;;;;;;4.97;2.10;;;;;;;;;;5013409;28;20033;-80
2023/07/18 03:59:22;;;;;;;4.22;1.95;;;;;;;;;;5011330;28;20034;-80
2023/07/18 04:01:48;;;;;;;4.15;2.20;;;;;;;;;;5013041;28;20026;-80
2023/07/18 04:04:15;;;;;;;2.75;1.33;;;;;;;;;;5012334;28;20478;-79
2023/07/18 04:06:43;;;;;;;7.72;2.15;;;17.00;97.10;;;;;;5022477;28;20109;-79
2023/07/18 04:09:09;;;;;;;2.58;1.67;;;;;;;;;;5012639;28;20049;-79
2023/07/18 04:11:35;;;;;;;5.53;2.25;;;;;;;;;;5013073;28;20029;-79
2023/07/18 04:14:01;;;;;;;3.97;2.03;;;;;;;;;;5011991;28;20072;-80
2023/07/18 04:16:27;;;;;;;3.45;1.60;;;;;;;;;;5015092;28;20053;-79
2023/07/18 04:18:53;;;;;;;5.30;2.53;;;;;;;;;;5011424;28;20080;-79
2023/07/18 04:21:19;;;;;;;5.50;2.15;;;;;;;;;;5008951;28;20457;-79
2023/07/18 04:23:45;;;;;;;2.83;1.75;;;;;;;;;;5009121;28;20059;-79
2023/07/18 04:26:12;;;;;;;4.25;2.15;;;;;;;;;;5012998;28;20022;-79
2023/07/18 04:28:38;;;;;;;2.72;1.73;;;;;;;;;;5011910;28;20041;-79
2023/07/18 04:31:05;;;;;;;5.05;1.83;;;;;;;;;;5012478;28;20120;-79
2023/07/18 04:33:34;;;;;;;6.95;2.35;;;17.40;97.40;;;;;;5012069;28;20026;-79
2023/07/18 04:36:00;;;;;;;5.05;2.35;;;;;;;;;;5012022;28;20050;-79
2023/07/18 04:38:26;;;;;;;4.77;2.33;;;;;;;;;;5012110;28;20037;-79
2023/07/18 04:40:52;;;;;;;7.43;2.60;;;;;;;;;;5010196;28;20030;-79
2023/07/18 04:43:19;;;;;;;6.85;1.75;;;17.60;96.00;;;;;;5009604;28;20025;-79
2023/07/18 04:45:46;;;;;;;6.90;1.83;;;17.70;99.90;;;;;;5006285;28;20065;-79
2023/07/18 04:48:16;;;;;;;7.32;1.98;;;18.10;95.40;;;;;;5005009;28;20076;-79
2023/07/18 04:50:46;;;;;;;6.63;1.70;;;18.00;95.00;;;;;;5012376;28;20498;-79
2023/07/18 04:53:12;;;;;;;2.97;1.63;;;;;;;;;;5011900;28;20022;-79
2023/07/18 04:55:38;;;;;;;5.20;1.55;;;;;;;;;;5011864;28;20036;-80
2023/07/18 04:58:06;;;;;;;5.95;2.10;;;18.60;94.20;;;;;;5011348;28;20026;-79
2023/07/18 05:00:33;;;;;;;3.53;2.30;;;;;;;;;;5011567;28;20171;-79
2023/07/18 05:02:59;;;;;;;4.57;2.22;;;;;;;;;;5009289;28;20033;-79
2023/07/18 05:05:26;;;;;;;3.58;1.83;;;18.70;93.60;;;;;;5011645;28;20025;-79
2023/07/18 05:07:51;;;;;;;3.58;1.85;;;19.00;96.20;;;;;;5014962;28;20030;-79
2023/07/18 05:10:17;;;;;;;4.05;1.42;;;;;;;;;;5020710;28;20034;-79
2023/07/18 05:12:43;;;;;;;4.55;1.80;;;;;;;;;;5010972;28;20088;-79
2023/07/18 05:15:10;;;;;;;4.78;2.22;;;18.30;96.10;;;;;;5011250;28;20483;-79
2023/07/18 05:17:36;;;;;;;3.50;1.77;;;;;;;;;;5011375;28;20018;-80
2023/07/18 05:20:02;;;;;;;7.95;2.35;;;;;;;;;;5011398;28;20550;-80
2023/07/18 05:22:29;;;;;;;8.20;2.35;;;;;;;;;;5010652;28;20018;-78
2023/07/18 05:24:55;;;;;;;3.03;1.85;;;;;;;;;;5011230;28;20120;-79
2023/07/18 05:27:21;;;;;;;4.45;2.22;;;;;;;;;;5010979;28;20053;-79
2023/07/18 05:29:47;;;;;;;4.33;2.00;;;;;;;;;;5011074;28;20064;-80
2023/07/18 05:32:13;;;;;;;2.97;1.75;;;;;;;;;;5011546;28;20265;-79
2023/07/18 05:34:39;;;;;;;5.60;2.55;;;;;;;;;;5011118;28;20048;-74
2023/07/18 05:37:05;;;;;;;3.83;2.15;;;;;;;;;;5006267;28;20025;-74
2023/07/18 05:39:31;;;;;;;5.60;2.47;;;19.60;99.20;;;;;;5006449;28;20023;-74
2023/07/18 05:41:57;;;;;;;4.05;2.00;;;19.60;97.30;;;;;;5007421;28;20022;-74
2023/07/18 05:44:23;;;;;;;6.15;1.95;;;19.80;96.30;;;;;;5008099;28;20030;-74
2023/07/18 05:46:49;;;;;;;4.00;2.33;;;;;;;;;;4996841;28;20030;-74
2023/07/18 05:49:15;;;;;;;5.90;2.97;;;;;;;;;;4993517;28;20033;-74
2023/07/18 05:51:41;;;;;;;3.85;2.53;;;;;;;;;;5004228;28;20269;-74
2023/07/18 05:54:07;;;;;;;4.60;2.42;;;19.90;95.30;;;;;;5009454;28;20513;-74
2023/07/18 05:56:32;;;;;;;6.15;2.30;;;20.60;90.90;;;;;;5012824;28;20075;-74
2023/07/18 05:59:00;;;;;;;4.85;2.25;;;20.60;85.30;;;;;;5014021;28;20109;-74
2023/07/18 06:01:26;;;;;;;6.22;2.00;;;;;;;;;;5006976;28;20030;-78
2023/07/18 06:03:52;;;;;;;3.55;2.10;;;;;;;;;;5003516;28;20125;-77
2023/07/18 06:06:19;;;;;;;5.15;3.03;;;;;;;;;;5010090;28;20108;-75
2023/07/18 06:08:45;;;;;;;3.45;1.88;;;21.70;93.90;;;;;;5009027;28;20026;-76
2023/07/18 06:11:11;;;;;;;4.30;1.80;;;;;;;;;;5011191;28;20076;-75
2023/07/18 06:13:37;;;;;;;4.45;2.25;;;;;;;;;;5007762;28;20022;-74
2023/07/18 06:16:04;;;;;;;5.53;2.65;;;22.20;82.50;;;;;;5008807;28;20029;-75
2023/07/18 06:18:30;;;;;;;8.35;2.72;;;22.30;85.50;;;;;;5009261;28;20754;-74
2023/07/18 06:20:56;;;;;;;3.23;2.23;;;;;;;;;;5011667;28;20079;-74
2023/07/18 06:23:22;;;;;;;3.20;1.88;;;22.80;90.00;;;;;;5009004;28;20554;-75
2023/07/18 06:25:48;;;;;;;7.18;2.03;;;;;;;;;;5008984;28;20026;-74
2023/07/18 06:28:14;;;;;;;2.70;1.80;;;;;;;;;;5008227;28;20072;-75
2023/07/18 06:30:39;;;;;;;3.67;1.85;;;23.80;75.60;;;;;;5012003;28;20069;-74
2023/07/18 06:33:05;;;;;;;7.00;1.65;;;;;;;;;;5010875;28;20033;-75
2023/07/18 06:35:38;;;;;;;4.50;1.50;;;;;;;;;;5060546;28;20406;-75
2023/07/18 06:38:04;;;;;;;2.10;1.38;;;;;;;;;;5030447;28;20040;-75
2023/07/18 06:40:30;;;;;;;3.33;1.58;;;;;;;;;;5042276;28;20033;-75
2023/07/18 06:42:56;;;;;;;5.35;1.83;;;;;;;;;;5040274;28;20617;-75
2023/07/18 06:45:22;;;;;;;2.42;1.50;;;26.70;68.20;;;;;;5041452;28;20022;-75
2023/07/18 06:47:48;;;;;;;2.78;1.70;;;;;;;;;;5031001;28;20060;-75
2023/07/18 06:50:14;;;;;;;4.93;1.52;;;;;;;;;;5041652;28;20021;-75
2023/07/18 06:52:40;;;;;;;3.05;1.90;;;33.20;58.50;;;;;;5031842;28;20038;-75
2023/07/18 06:55:09;;;;;;;9.80;2.22;;;;;;;;;;5041505;28;20037;-75
2023/07/18 06:57:35;;;;;;;2.70;1.27;;;;;;;;;;5044114;28;20044;-76
2023/07/18 07:00:04;;;;;;;4.07;1.80;;;;;;;;;;5046579;28;20029;-76
2023/07/18 07:02:30;;;;;;;3.40;1.25;;;;;;;;;;5035578;28;20120;-76
2023/07/18 07:04:55;;;;;;;2.67;1.25;;;42.50;40.60;;;;;;5048799;28;20063;-75
2023/07/18 07:07:22;;;;;;;2.47;1.30;;;;;;;;;;5042489;28;20061;-76
2023/07/18 07:09:48;;;;;;;3.65;1.65;;;;;;;;;;5046936;28;21122;-76
2023/07/18 07:12:14;;;;;;;2.63;1.42;;;;;;;;;;5034065;28;20024;-77
2023/07/18 07:14:40;;;;;;;3.15;1.25;;;;;;;;;;5051547;28;20543;-76
2023/07/18 07:17:06;;;;;;;5.00;2.47;;;;;;;;;;5042028;28;20053;-79
2023/07/18 07:19:34;;;;;;;3.42;2.40;;;;;;;;;;5047896;28;20028;-78
2023/07/18 07:21:59;;;;;;;1.67;0.98;;;48.60;34.20;;;;;;5032984;28;20025;-78
2023/07/18 07:24:25;;;;;;;5.63;1.38;;;49.10;32.20;;;;;;5046832;28;20028;-76
2023/07/18 07:26:51;;;;;;;2.10;1.10;;;;;;;;;;5040468;28;20025;-82
2023/07/18 07:29:17;;;;;;;2.03;1.50;;;;;;;;;;5047789;28;20044;-80
2023/07/18 07:31:42;;;;;;;2.65;1.30;;;51.00;34.50;;;;;;5037089;28;20430;-81
2023/07/18 07:34:08;;;;;;;4.78;1.40;;;51.20;33.10;;;;;;5042188;28;20080;-79
2023/07/18 07:36:34;;;;;;;7.53;1.55;;;;;;;;;;5037228;28;20025;-79
2023/07/18 07:39:00;;;;;;;3.63;1.38;;;;;;;;;;5040412;28;20119;-80
2023/07/18 07:41:26;;;;;;;8.13;7.60;;;;;;;;;;5035455;28;20902;-80
2023/07/18 07:43:52;;;;;;;2.67;1.50;;;;;;;;;;5044050;28;20040;-81
2023/07/18 07:46:18;;;;;;;2.83;1.35;;;;;;;;;;5035063;28;20017;-81
2023/07/18 07:48:43;;;;;;;3.13;1.50;;;51.90;28.90;;;;;;5027419;28;20156;-81
2023/07/18 07:51:14;;;;;;;3.03;1.50;;;51.90;24.10;;;;;;5023016;28;20044;-80
2023/07/18 07:53:40;;;;;;;2.08;1.42;;;;;;;;;;5025036;28;20037;-79
2023/07/18 07:56:06;;;;;;;6.18;1.75;;;52.00;30.70;;;;;;5028921;28;20032;-79
2023/07/18 07:58:32;;;;;;;5.78;1.70;;;;;;;;;;5034100;28;20490;-79
2023/07/18 08:00:57;;;;;;;2.40;1.10;;;;;;;;;;5025592;28;20030;-79
2023/07/18 08:03:23;;;;;;;3.65;1.35;;;53.10;25.90;;;;;;5028177;28;20036;-79
2023/07/18 08:05:49;;;;;;;3.05;1.30;;;;;;;;;;5029147;28;20029;-77
2023/07/18 08:08:17;;;;;;;2.90;1.63;;;53.20;30.70;;;;;;5038233;28;20379;-78
2023/07/18 08:10:43;;;;;;;2.67;1.80;;;;;;;;;;5027351;28;20040;-78
2023/07/18 08:13:10;;;;;;;2.45;1.27;;;;;;;;;;5021862;28;20022;-77
2023/07/18 08:15:36;;;;;;;5.20;1.55;;;;;;;;;;5035155;28;20038;-77
2023/07/18 08:18:02;;;;;;;3.10;1.40;;;;;;;;;;5026598;28;20026;-77
2023/07/18 08:20:28;;;;;;;3.38;1.33;;;;;;;;;;5029948;28;20514;-78
2023/07/18 08:22:54;;;;;;;3.08;1.38;;;50.30;23.20;;;;;;5018605;28;20115;-78
2023/07/18 08:25:20;;;;;;;2.17;1.35;;;;;;;;;;5031812;28;20025;-78
2023/07/18 08:27:46;;;;;;;2.05;1.45;;;;;;;;;;5030967;28;20128;-77
2023/07/18 08:30:12;;;;;;;2.80;1.42;;;51.60;26.90;;;;;;5032459;28;20025;-77
2023/07/18 08:32:40;;;;;;;2.15;1.40;;;52.50;23.30;;;;;;5026418;28;21785;-80
2023/07/18 08:35:06;;;;;;;4.90;1.63;;;;;;;;;;5027707;28;20717;-79
2023/07/18 08:37:32;;;;;;;4.40;1.77;;;;;;;;;;5032143;28;20057;-78
2023/07/18 08:39:58;;;;;;;3.17;1.65;;;;;;;;;;5028856;28;20043;-79
2023/07/18 08:42:27;;;;;;;3.92;1.70;;;51.70;22.90;;;;;;5027429;28;20187;-80
2023/07/18 08:44:57;;;;;;;4.03;1.15;;;52.70;28.80;;;;;;5029665;28;20060;-81
2023/07/18 08:47:23;;;;;;;8.15;1.10;;;;;;;;;;5027702;28;20017;-81
2023/07/18 08:49:49;;;;;;;3.13;1.15;;;;;;;;;;5027143;28;20478;-83
2023/07/18 08:52:15;;;;;;;2.92;1.50;;;;;;;;;;5018841;28;20014;-81
2023/07/18 08:54:41;;;;;;;1.77;0.98;;;;;;;;;;5027500;28;20120;-81
2023/07/18 08:57:07;;;;;;;2.33;1.48;;;;;;;;;;5025862;28;20022;-81
2023/07/18 08:59:33;;;;;;;11.80;1.67;;;;;;;;;;5025384;28;20025;-82
2023/07/18 09:01:59;;;;;;;2.38;1.42;;;;;;;;;;5019773;28;20113;-81
2023/07/18 09:04:25;;;;;;;5.47;1.25;;;;;;;;;;5029218;28;20112;-81
2023/07/18 09:06:59;;;;;;;6.05;1.30;;;54.60;22.00;;;;;;5027352;28;20569;-82
2023/07/18 09:09:25;;;;;;;2.75;1.50;;;54.50;22.10;;;;;;5026398;28;20375;-82
2023/07/18 09:11:59;;;;;;;4.95;1.35;;;56.10;22.00;;;;;;5018073;28;20040;-82
2023/07/18 09:14:27;;;;;;;2.55;1.40;;;56.90;21.60;;;;;;5034360;28;20040;-82
2023/07/18 09:16:54;;;;;;;2.55;1.38;;;55.00;29.10;;;;;;5033762;28;20486;-82
2023/07/18 09:19:34;;;;;;;2.08;1.15;;;55.70;21.90;;;;;;5032296;28;20053;-82
2023/07/18 09:22:00;;;;;;;1.73;1.40;;;;;;;;;;5020146;28;20025;-82
2023/07/18 09:24:35;;;;;;;2.58;1.38;;;57.70;22.20;;;;;;5027685;28;20045;-82
2023/07/18 09:27:01;;;;;;;2.05;1.40;;;;;;;;;;5035170;28;20021;-82
2023/07/18 09:29:27;;;;;;;3.15;1.73;;;;;;;;;;5026508;28;20067;-82
2023/07/18 09:31:53;;;;;;;4.28;1.52;;;57.90;21.30;;;;;;5020470;28;20706;-82
2023/07/18 09:34:19;;;;;;;2.58;1.40;;;;;;;;;;5026126;28;20072;-82
2023/07/18 09:36:57;;;;;;;2.88;1.45;;;58.50;21.10;;;;;;5030389;28;20018;-82
2023/07/18 09:39:23;;;;;;;3.75;1.63;;;58.50;26.90;;;;;;5024069;28;20025;-83
2023/07/18 09:41:50;;;;;;;3.70;1.50;;;58.70;21.10;;;;;;5028783;28;20025;-83
2023/07/18 09:44:17;;;;;;;3.72;1.67;;;58.90;25.00;;;;;;5026870;28;20099;-82
2023/07/18 09:46:43;;;;;;;4.50;1.60;;;58.80;22.60;;;;;;5029246;28;20024;-83
2023/07/18 09:49:10;;;;;;;3.13;1.80;;;;;;;;;;5029186;28;20030;-82
2023/07/18 09:51:38;;;;;;;2.30;1.33;;;59.20;21.00;;;;;;5024870;28;20057;-82
2023/07/18 09:54:06;;;;;;;5.72;1.70;;;59.70;21.00;;;;;;5029743;28;20441;-82
2023/07/18 09:56:39;;;;;;;10.57;4.22;;;59.60;25.60;;;;;;5036593;28;20099;-82
2023/07/18 09:59:08;;;;;;;4.63;1.67;;;;;;;;;;5032311;28;20075;-82
2023/07/18 10:01:34;;;;;;;3.38;1.77;;;;;;;;;;5021345;28;20038;-83
2023/07/18 10:04:00;;;;;;;2.47;1.85;;;59.00;27.70;;;;;;5026489;28;20037;-83
2023/07/18 10:06:26;;;;;;;3.65;1.55;;;59.10;20.80;;;;;;5032182;28;20033;-82
2023/07/18 10:08:54;;;;;;;5.82;1.70;;;59.40;21.00;;;;;;5024907;28;20017;-82
2023/07/18 10:11:20;;;;;;;3.60;1.73;;;;;;;;;;5018737;28;20044;-83
2023/07/18 10:13:54;;;;;;;2.72;1.40;;;58.20;25.30;;;;;;5027826;28;20026;-84
2023/07/18 10:16:21;;;;;;;1.73;1.40;;;56.50;28.70;;;;;;5026309;28;20077;-84
2023/07/18 10:18:50;;;;;;;6.20;1.75;;;55.60;25.10;;;;;;5026819;28;20402;-81
2023/07/18 10:21:30;;;;;;;2.80;1.30;;;56.80;21.70;;;;;;5023326;28;20108;-84
2023/07/18 10:23:56;;;;;;;2.65;1.65;;;57.70;23.50;;;;;;5038683;28;20048;-84
2023/07/18 10:26:32;;;;;;;2.17;1.38;;;57.80;23.80;;;;;;5029106;28;20026;-83
2023/07/18 10:29:02;;;;;;;4.07;1.80;;;58.30;21.40;;;;;;5027766;28;20415;-83
2023/07/18 10:31:36;;;;;;;5.32;1.63;;;58.40;25.90;;;;;;5027396;28;20778;-83
2023/07/18 10:34:16;;;;;;;4.15;1.45;;;58.40;21.40;;;;;;5028894;28;20546;-84
2023/07/18 10:36:59;;;;;;;3.10;1.65;;;58.20;21.30;;;;;;5030859;28;20214;-84
2023/07/18 10:39:55;;;;;;;3.80;1.70;;;57.90;21.30;;;;;;5031309;28;20080;-84
2023/07/18 10:42:26;;;;;;;2.03;1.73;;;57.70;21.40;;;;;;5011479;28;20056;-86
2023/07/18 10:45:17;;;;;;;4.82;1.80;;;57.60;21.30;;;;;;5027389;28;20033;-84
2023/07/18 10:47:43;;;;;;;6.28;1.40;;;;;;;;;;5023016;28;20708;-84
2023/07/18 10:50:09;;;;;;;5.43;2.13;;;;;;;;;;5030288;28;20107;-85
2023/07/18 10:52:36;;;;;;;3.20;2.22;;;;;;;;;;5018170;28;20029;-86
2023/07/18 10:55:06;;;;;;;4.63;1.52;;;;;;;;;;5027821;28;20033;-84
2023/07/18 10:57:34;;;;;;;2.55;1.90;;;57.00;28.60;;;;;;5030449;28;20026;-84
2023/07/18 11:00:01;;;;;;;2.88;1.45;;;56.80;22.60;;;;;;5029266;28;20037;-85
2023/07/18 11:02:30;;;;;;;2.58;1.60;;;56.40;21.60;;;;;;5015965;28;20029;-84
2023/07/18 11:04:56;;;;;;;4.20;1.52;;;;;;;;;;5029280;28;20033;-85
2023/07/18 11:07:35;;;;;;;1.83;1.65;;;56.30;28.60;;;;;;5027307;28;20525;-83
2023/07/18 11:10:01;;;;;;;3.45;1.52;;;;;;;;;;5025632;28;20734;-85
2023/07/18 11:12:27;;;;;;;7.15;1.92;;;56.60;26.80;;;;;;5016904;28;20033;-84
2023/07/18 11:14:53;;;;;;;6.43;2.03;;;;;;;;;;5035404;28;20037;-85
2023/07/18 11:17:19;;;;;;;2.97;1.80;;;56.00;28.70;;;;;;5033798;28;20029;-84
2023/07/18 11:19:46;;;;;;;5.93;1.83;;;56.30;25.40;;;;;;5031246;28;20723;-84
2023/07/18 11:22:13;;;;;;;3.13;1.38;;;55.80;28.80;;;;;;5019986;28;20033;-83
2023/07/18 11:24:43;;;;;;;7.70;1.85;;;55.70;22.10;;;;;;5028338;28;20033;-85
2023/07/18 11:27:21;;;;;;;4.57;1.75;;;55.00;26.00;;;;;;5036274;28;20041;-85
2023/07/18 11:30:00;;;;;;;2.47;1.55;;;54.50;23.60;;;;;;5029475;28;20025;-85
2023/07/18 11:32:43;;;;;;;4.32;1.90;;;54.50;22.40;;;;;;5024650;28;20566;-84
2023/07/18 11:35:10;;;;;;;2.58;1.60;;;55.00;22.30;;;;;;5028718;28;20514;-84
2023/07/18 11:37:43;;;;;;;2.55;1.67;;;55.10;22.30;;;;;;5034655;28;20022;-84
2023/07/18 11:40:17;;;;;;;7.40;1.77;;;55.10;22.20;;;;;;5031126;28;20124;-84
2023/07/18 11:42:57;;;;;;;8.17;2.03;;;54.60;22.10;;;;;;5023055;28;20402;-85
2023/07/18 11:45:25;;;;;;;2.60;1.63;;;54.10;22.20;;;;;;5031791;28;20055;-86
2023/07/18 11:47:52;;;;;;;2.85;2.05;;;53.60;22.50;;;;;;5027868;28;20033;-79
2023/07/18 11:50:18;;;;;;;5.03;1.50;;;;;;;;;;5033749;28;20021;-79
2023/07/18 11:52:49;;;;;;;3.80;1.40;;;53.00;22.90;;;;;;5017461;28;20021;-78
2023/07/18 11:55:16;;;;;;;5.40;1.83;;;53.40;28.50;;;;;;5026557;28;20464;-79
2023/07/18 11:57:42;;;;;;;3.55;2.20;;;;;;;;;;5032337;28;20022;-79
2023/07/18 12:00:10;;;;;;;3.83;1.40;;;50.20;23.70;;;;;;5030720;28;20466;-79
2023/07/18 12:02:36;;;;;;;3.58;1.73;;;;;;;;;;5017974;28;20502;-79
2023/07/18 12:05:03;;;;;;;4.53;2.10;;;46.70;25.10;;;;;;5032493;28;20029;-78
2023/07/18 12:07:29;;;;;;;12.98;2.20;;;;;;;;;;5031594;28;20520;-79
2023/07/18 12:09:55;;;;;;;;;;;42.60;27.70;;;;;;5031136;28;20032;-78
2023/07/18 12:12:23;;;;;;;3.88;1.67;;;;;;;;;;5019429;28;19909;-79
2023/07/18 12:14:49;;;;;;;3.63;2.05;;;;;;;;;;5029091;28;20034;-78
2023/07/18 12:17:15;;;;;;;5.30;2.17;;;;;;;;;;5029639;28;20056;-79
2023/07/18 12:19:42;;;;;;;4.75;2.53;;;;;;;;;;5026128;28;20041;-79
2023/07/18 12:22:08;;;;;;;7.32;2.03;;;;;;;;;;5020057;28;20045;-82
2023/07/18 12:24:34;;;;;;;7.57;2.00;;;37.40;47.30;;;;;;5031664;28;20053;-83
2023/07/18 12:27:00;;;;;;;8.77;3.00;;;;;;;;;;5033999;28;20061;-80
2023/07/18 12:29:26;;;;;;;5.32;1.95;;;;;;;;;;5030275;28;20268;-78
2023/07/18 12:31:53;;;;;;;2.80;1.60;;;;;;;;;;5018319;28;20029;-82
2023/07/18 12:34:19;;;;;;;5.68;2.38;;;;;;;;;;5028465;28;20053;-82
2023/07/18 12:36:45;;;;;;;5.55;2.30;;;;;;;;;;5031746;28;20026;-81
2023/07/18 12:39:12;;;;;;;6.00;1.90;;;;;;;;;;5033394;28;20568;-83
2023/07/18 12:41:38;;;;;;;5.85;2.00;;;;;;;;;;5017775;28;20063;-81
2023/07/18 12:44:04;;;;;;;12.85;2.72;;;;;;;;;;5031150;28;20029;-82
2023/07/18 12:46:30;;;;;;;15.30;2.60;;;;;;;;;;5029165;28;20036;-83
2023/07/18 12:48:56;;;;;;;3.15;1.95;;;35.60;36.30;;;;;;5029474;28;20037;-82
2023/07/18 12:51:23;;;;;;;7.32;2.67;;;;;;;;;;5017289;28;20083;-83
2023/07/18 12:53:49;;;;;;;5.53;1.92;;;;;;;;;;5027309;28;20052;-81
2023/07/18 12:56:16;;;;;;;7.32;2.60;;;;;;;;;;5031247;28;20028;-82
2023/07/18 12:58:42;;;;;;;4.00;2.10;;;;;;;;;;5029928;28;20038;-80
2023/07/18 13:01:11;;;;;;;4.95;2.25;;;35.80;38.20;;;;;;5026258;28;20026;-81
2023/07/18 13:03:37;;;;;;;7.10;3.05;;;;;;;;;;5026185;28;20499;-84
2023/07/18 13:06:06;;;;;;;4.78;1.92;;;;;;;;;;5030334;28;20040;-84
2023/07/18 13:08:32;;;;;;;6.47;2.25;;;;;;;;;;5030087;28;20136;-87
2023/07/18 13:10:58;;;;;;;4.82;2.17;;;;;;;;;;5027500;28;20048;-86
2023/07/18 13:13:25;;;;;;;4.25;2.17;;;;;;;;;;5023054;28;20021;-86
2023/07/18 13:15:51;;;;;;;5.85;2.60;;;;;;;;;;5035839;28;20040;-86
2023/07/18 13:18:17;;;;;;;4.32;2.03;;;;;;;;;;5030599;28;20041;-85
2023/07/18 13:20:44;;;;;;;3.38;2.35;;;;;;;;;;5028911;28;20025;-80
2023/07/18 13:23:10;;;;;;;4.40;2.25;;;;;;;;;;5018069;28;20041;-81
2023/07/18 13:25:36;;;;;;;7.38;2.42;;;;;;;;;;5028730;28;20044;-79
2023/07/18 13:28:03;;;;;;;3.78;2.13;;;;;;;;;;5027170;28;20029;-80
2023/07/18 13:30:29;;;;;;;6.68;2.17;;;;;;;;;;5034834;28;20025;-80
2023/07/18 13:32:55;;;;;;;11.02;3.30;;;;;;;;;;5019068;28;20036;-84
2023/07/18 13:35:21;;;;;;;4.90;2.50;;;;;;;;;;5025761;28;20049;-82
2023/07/18 13:37:47;;;;;;;11.23;2.50;;;;;;;;;;5026793;28;20043;-80
2023/07/18 13:40:13;;;;;;;4.30;2.08;;;34.60;56.40;;;;;;5035826;28;20096;-83
2023/07/18 13:42:38;;;;;;;5.77;1.90;;;;;;;;;;5024476;28;20033;-80
2023/07/18 13:45:07;;;;;;;4.55;2.38;;;;;;;;;;5028066;28;20029;-79
2023/07/18 13:47:34;;;;;;;5.15;2.28;;;33.90;46.00;;;;;;5029829;28;20038;-79
2023/07/18 13:50:00;;;;;;;3.50;2.60;;;;;;;;;;5030449;28;20054;-78
2023/07/18 13:52:27;;;;;;;4.38;2.40;;;;;;;;;;5019683;28;20822;-79
2023/07/18 13:54:52;;;;;;;9.93;2.92;;;34.50;51.90;;;;;;5032626;28;20045;-78
2023/07/18 13:57:18;;;;;;;7.27;2.57;;;;;;;;;;5027379;28;20020;-80